Time;durP1;ratioP1;P1;durP2;ratioP2;P2;SDS_P1;SDS_P2;PMS_P1;PMS_P2;Temp;Humidity;BMP_temperature;BMP_pressure;BME280_temperature;BME280_humidity;BME280_pressure;Samples;Min_cycle;Max_cycle;Signal;HPM_P1;HPM_P2
2023/05/22 00:07:41;;;;;;;3.13;2.40;;;22.60;99.90;;;;;;20878579;28;20647;-82
2023/05/22 00:17:43;;;;;;;3.10;2.50;;;;;;;;;;20859543;28;20641;-83
2023/05/22 00:27:46;;;;;;;3.15;2.38;;;22.30;99.90;;;;;;20873788;28;20217;-83
2023/05/22 00:37:48;;;;;;;3.90;2.53;;;;;;;;;;20843409;28;20227;-82
2023/05/22 00:47:50;;;;;;;3.00;2.50;;;;;;;;;;20858890;28;20227;-82
2023/05/22 00:57:51;;;;;;;3.65;2.80;;;;;;;;;;20856173;28;20215;-82
2023/05/22 01:07:53;;;;;;;5.03;2.95;;;;;;;;;;20857754;28;20292;-83
2023/05/22 01:18:09;;;;;;;5.30;2.97;;;;;;;;;;20856674;28;20355;-83
2023/05/22 01:28:19;;;;;;;3.60;2.63;;;;;;;;;;20898794;28;20239;-83
2023/05/22 01:38:21;;;;;;;3.50;2.55;;;;;;;;;;20871708;28;20209;-83
2023/05/22 01:48:22;;;;;;;3.78;2.88;;;;;;;;;;20854235;28;20291;-83
2023/05/22 01:58:36;;;;;;;6.30;3.17;;;21.10;99.90;;;;;;20853527;28;20615;-82
2023/05/22 02:08:39;;;;;;;3.20;2.70;;;;;;;;;;20887400;28;20232;-82
2023/05/22 02:18:41;;;;;;;6.43;3.72;;;;;;;;;;20871318;28;20276;-83
2023/05/22 02:28:43;;;;;;;4.27;3.60;;;;;;;;;;20853679;28;20237;-83
2023/05/22 02:38:45;;;;;;;4.77;3.10;;;;;;;;;;20857737;28;20235;-83
2023/05/22 02:48:47;;;;;;;4.50;3.40;;;;;;;;;;20867227;28;20617;-82
2023/05/22 02:58:48;;;;;;;4.77;3.87;;;;;;;;;;20889548;28;20263;-82
2023/05/22 03:08:51;;;;;;;3.87;3.43;;;;;;;;;;20938937;28;20223;-82
2023/05/22 03:19:12;;;;;;;6.73;3.20;;;;;;;;;;20853656;28;20303;-82
2023/05/22 03:29:14;;;;;;;4.43;3.60;;;;;;;;;;20885815;28;20236;-83
2023/05/22 03:39:17;;;;;;;7.80;3.60;;;;;;;;;;20845771;28;20568;-82
2023/05/22 03:49:28;;;;;;;4.17;3.27;;;;;;;;;;20864582;28;20233;-82
2023/05/22 03:59:30;;;;;;;3.60;2.83;;;;;;;;;;20863790;28;20587;-83
2023/05/22 04:09:33;;;;;;;3.97;3.40;;;;;;;;;;20894814;28;20240;-82
2023/05/22 04:19:35;;;;;;;5.07;3.60;;;;;;;;;;20846279;28;20724;-83
2023/05/22 04:29:36;;;;;;;3.73;3.03;;;;;;;;;;20862476;28;20289;-82
2023/05/22 04:39:39;;;;;;;3.47;2.80;;;;;;;;;;20883233;28;20274;-83
2023/05/22 04:49:42;;;;;;;4.23;3.47;;;;;;;;;;20885016;28;20761;-83
2023/05/22 04:59:44;;;;;;;5.10;3.43;;;;;;;;;;20889635;28;20250;-83
2023/05/22 05:09:46;;;;;;;4.13;3.40;;;;;;;;;;20862787;28;20250;-83
2023/05/22 05:19:48;;;;;;;3.93;3.07;;;;;;;;;;20883050;28;20245;-83
2023/05/22 05:29:50;;;;;;;4.10;3.50;;;;;;;;;;20886833;28;20232;-83
2023/05/22 05:40:11;;;;;;;4.23;3.47;;;;;;;;;;20875810;28;20736;-83
2023/05/22 05:50:18;;;;;;;5.17;3.60;;;;;;;;;;20873499;28;20241;-84
2023/05/22 06:00:21;;;;;;;4.27;3.50;;;;;;;;;;20905368;28;20217;-83
2023/05/22 06:10:25;;;;;;;4.37;3.30;;;;;;;;;;20858778;28;20287;-82
2023/05/22 06:20:35;;;;;;;4.37;3.30;;;;;;;;;;20883055;28;20760;-82
2023/05/22 06:30:37;;;;;;;5.77;3.60;;;;;;;;;;20885045;28;20233;-83
2023/05/22 06:40:39;;;;;;;4.97;3.40;;;;;;;;;;20936790;28;20222;-83
2023/05/22 06:51:01;;;;;;;5.27;3.63;;;21.90;99.90;;;;;;20983994;28;20234;-83
2023/05/22 07:01:04;;;;;;;5.00;4.17;;;;;;;;;;20882760;28;20266;-83
2023/05/22 07:11:13;;;;;;;4.80;3.43;;;;;;;;;;20917583;28;20777;-83
2023/05/22 07:21:15;;;;;;;4.38;3.70;;;;;;;;;;20885699;28;20249;-84
2023/05/22 07:31:18;;;;;;;4.25;3.53;;;;;;;;;;20875227;28;20813;-84
2023/05/22 07:41:22;;;;;;;5.00;4.03;;;;;;;;;;20881328;28;20704;-85
2023/05/22 07:51:25;;;;;;;6.73;4.17;;;;;;;;;;20940774;28;20641;-84
2023/05/22 08:01:27;;;;;;;4.28;3.85;;;;;;;;;;20844058;28;20211;-84
2023/05/22 08:11:29;;;;;;;5.20;4.13;;;;;;;;;;20796930;28;20223;-84
2023/05/22 08:21:33;;;;;;;5.07;3.97;;;;;;;;;;20840456;28;20260;-84
2023/05/22 08:31:35;;;;;;;5.10;3.67;;;;;;;;;;20819742;28;20239;-83
2023/05/22 08:41:36;;;;;;;5.10;3.95;;;;;;;;;;20913925;28;20227;-83
2023/05/22 08:51:39;;;;;;;4.70;3.72;;;;;;;;;;20890738;28;20257;-83
2023/05/22 09:01:41;;;;;;;4.32;3.17;;;;;;;;;;20892842;28;20211;-83
2023/05/22 09:11:43;;;;;;;3.70;3.30;;;24.10;99.90;;;;;;20858073;28;20787;-83
2023/05/22 09:21:45;;;;;;;4.57;3.50;;;;;;;;;;20892599;28;20216;-83
2023/05/22 09:31:46;;;;;;;3.20;2.75;;;;;;;;;;20891350;28;20244;-84
2023/05/22 09:41:51;;;;;;;4.68;3.70;;;;;;;;;;20793267;28;20252;-82
2023/05/22 09:51:55;;;;;;;7.05;3.85;;;;;;;;;;20866473;28;20282;-83
2023/05/22 10:01:57;;;;;;;5.28;3.45;;;;;;;;;;20852696;28;20204;-83
2023/05/22 10:12:03;;;;;;;4.03;3.45;;;;;;;;;;20896234;28;20220;-83
2023/05/22 10:22:05;;;;;;;4.40;3.30;;;25.90;99.90;;;;;;20899952;28;20214;-83
2023/05/22 10:32:20;;;;;;;3.55;3.03;;;;;;;;;;20971283;28;20231;-83
2023/05/22 10:42:30;;;;;;;5.03;3.35;;;;;;;;;;20899653;28;20221;-83
2023/05/22 10:52:31;;;;;;;5.03;3.35;;;;;;;;;;20874306;28;20232;-83
2023/05/22 11:02:38;;;;;;;4.22;3.20;;;26.90;99.90;;;;;;20927243;28;20215;-83
2023/05/22 11:12:40;;;;;;;4.90;3.53;;;;;;;;;;20918021;28;20286;-83
2023/05/22 11:22:45;;;;;;;4.13;3.42;;;25.90;99.90;;;;;;20878429;28;20212;-84
2023/05/22 11:32:47;;;;;;;5.30;3.38;;;;;;;;;;20913209;28;20592;-83
2023/05/22 11:42:49;;;;;;;3.88;3.40;;;;;;;;;;20911065;28;20222;-84
2023/05/22 11:52:52;;;;;;;4.22;3.40;;;27.80;99.90;;;;;;20905109;28;20232;-84
2023/05/22 12:02:54;;;;;;;4.07;3.33;;;;;;;;;;20877498;28;20216;-83
2023/05/22 12:12:56;;;;;;;3.30;2.45;;;;;;;;;;20895778;28;20237;-83
2023/05/22 12:22:58;;;;;;;4.53;2.70;;;;;;;;;;20912102;28;20207;-83
2023/05/22 12:33:00;;;;;;;4.28;2.35;;;;;;;;;;20911203;28;20300;-82
2023/05/22 12:43:01;;;;;;;3.38;2.78;;;;;;;;;;20902210;28;20216;-82
2023/05/22 12:53:03;;;;;;;3.17;2.30;;;;;;;;;;20911954;28;20255;-83
2023/05/22 13:03:05;;;;;;;3.17;2.58;;;29.70;99.90;;;;;;20883549;28;20220;-82
2023/05/22 13:13:07;;;;;;;2.60;1.98;;;;;;;;;;20875848;28;20233;-83
2023/05/22 13:23:09;;;;;;;4.82;2.00;;;;;;;;;;20908779;28;20221;-83
2023/05/22 13:33:11;;;;;;;2.70;1.90;;;;;;;;;;20936838;28;20227;-83
2023/05/22 13:43:13;;;;;;;2.67;1.85;;;;;;;;;;20939469;28;20220;-83
2023/05/22 13:53:14;;;;;;;4.05;2.17;;;;;;;;;;20920840;28;20610;-83
2023/05/22 14:03:16;;;;;;;3.88;2.25;;;;;;;;;;20848971;28;20276;-85
2023/05/22 14:13:19;;;;;;;4.55;1.85;;;;;;;;;;20884281;28;20238;-84
2023/05/22 14:23:20;;;;;;;2.80;1.88;;;;;;;;;;20878350;28;20220;-84
2023/05/22 14:33:22;;;;;;;4.10;1.98;;;25.70;99.90;;;;;;20879856;28;20217;-82
2023/05/22 14:43:24;;;;;;;4.47;2.47;;;;;;;;;;20945279;28;20294;-84
2023/05/22 14:53:26;;;;;;;3.67;2.10;;;;;;;;;;20899515;28;20240;-84
2023/05/22 15:03:27;;;;;;;3.33;2.10;;;;;;;;;;20860511;28;20280;-84
2023/05/22 15:13:30;;;;;;;2.55;1.90;;;;;;;;;;20890721;28;20247;-84
2023/05/22 15:23:31;;;;;;;3.97;2.80;;;;;;;;;;20883088;28;20225;-83
2023/05/22 15:33:34;;;;;;;3.83;2.95;;;;;;;;;;20898060;28;20228;-83
2023/05/22 15:43:36;;;;;;;2.70;2.22;;;;;;;;;;20917760;28;20219;-84
2023/05/22 15:53:38;;;;;;;2.50;2.25;;;25.50;99.90;;;;;;20962565;28;20233;-83
2023/05/22 16:03:40;;;;;;;3.42;1.92;;;;;;;;;;20892715;28;20222;-83
2023/05/22 16:13:41;;;;;;;1.90;1.52;;;;;;;;;;20922370;28;20228;-83
2023/05/22 16:23:43;;;;;;;4.15;1.35;;;;;;;;;;20893454;28;20227;-84
2023/05/22 16:33:45;;;;;;;3.50;1.60;;;;;;;;;;20880303;28;20234;-84
2023/05/22 16:43:47;;;;;;;2.13;1.10;;;;;;;;;;20867224;28;20218;-84
2023/05/22 16:53:49;;;;;;;1.65;1.30;;;;;;;;;;20860984;28;20232;-85
2023/05/22 17:03:51;;;;;;;2.63;1.80;;;;;;;;;;20902560;28;20280;-84
2023/05/22 17:13:53;;;;;;;3.58;2.13;;;;;;;;;;20945904;28;20229;-84
2023/05/22 17:23:55;;;;;;;3.05;2.10;;;;;;;;;;20905076;28;20278;-83
2023/05/22 17:33:56;;;;;;;3.08;2.10;;;;;;;;;;20910006;28;20282;-82
2023/05/22 17:44:00;;;;;;;2.90;2.10;;;;;;;;;;20896804;28;20273;-84
2023/05/22 17:54:02;;;;;;;2.53;2.03;;;;;;;;;;20879716;28;20236;-83
2023/05/22 18:04:04;;;;;;;3.05;2.00;;;;;;;;;;20850946;28;20227;-83
2023/05/22 18:14:06;;;;;;;3.55;2.40;;;;;;;;;;20893633;28;20205;-83
2023/05/22 18:24:08;;;;;;;4.45;2.47;;;;;;;;;;20909211;28;20263;-82
2023/05/22 18:34:10;;;;;;;4.47;1.95;;;;;;;;;;20889415;28;20825;-82
2023/05/22 18:44:12;;;;;;;2.75;1.95;;;;;;;;;;20892888;28;20211;-82
2023/05/22 18:54:14;;;;;;;2.80;1.83;;;;;;;;;;20875723;28;20570;-82
2023/05/22 19:04:16;;;;;;;3.10;1.70;;;;;;;;;;20915419;28;20212;-82
2023/05/22 19:14:18;;;;;;;2.67;1.88;;;;;;;;;;20928464;28;20209;-83
2023/05/22 19:24:20;;;;;;;3.47;2.42;;;;;;;;;;20890197;28;20237;-84
2023/05/22 19:34:21;;;;;;;3.53;2.50;;;;;;;;;;20891058;28;20686;-82
2023/05/22 19:44:23;;;;;;;3.80;3.05;;;;;;;;;;20881411;28;20265;-82
2023/05/22 19:54:25;;;;;;;4.78;3.13;;;;;;;;;;20893410;28;20761;-83
2023/05/22 20:04:26;;;;;;;5.22;3.08;;;;;;;;;;20874727;28;20230;-82
2023/05/22 20:14:28;;;;;;;3.90;3.00;;;;;;;;;;20859340;28;20232;-83
2023/05/22 20:24:30;;;;;;;8.23;6.65;;;22.40;99.90;;;;;;20900182;28;20228;-83
2023/05/22 20:34:32;;;;;;;7.68;3.70;;;;;;;;;;20862625;28;20256;-82
2023/05/22 20:44:34;;;;;;;5.22;3.35;;;;;;;;;;20909644;28;20257;-85
2023/05/22 20:54:38;;;;;;;4.43;3.50;;;;;;;;;;20894547;28;20214;-82
2023/05/22 21:04:41;;;;;;;6.70;4.50;;;;;;;;;;20909734;28;20630;-82
2023/05/22 21:14:42;;;;;;;6.75;5.40;;;;;;;;;;20811725;28;20239;-82
2023/05/22 21:24:44;;;;;;;5.93;5.10;;;;;;;;;;20825196;28;20350;-82
2023/05/22 21:34:46;;;;;;;6.25;5.10;;;;;;;;;;20809524;28;20218;-82
2023/05/22 21:44:47;;;;;;;7.68;5.68;;;;;;;;;;20812575;28;20262;-82
2023/05/22 21:54:49;;;;;;;7.38;6.00;;;;;;;;;;20864417;28;20560;-80
2023/05/22 22:04:51;;;;;;;11.88;7.32;;;;;;;;;;20865289;28;20292;-80
2023/05/22 22:14:52;;;;;;;11.93;6.72;;;;;;;;;;20906247;28;20363;-81
2023/05/22 22:24:54;;;;;;;11.80;8.18;;;;;;;;;;20879899;28;20225;-81
2023/05/22 22:34:56;;;;;;;12.43;8.23;;;;;;;;;;20888242;28;20215;-81
2023/05/22 22:44:58;;;;;;;15.00;9.65;;;;;;;;;;20905301;28;20580;-83
2023/05/22 22:55:00;;;;;;;14.35;9.02;;;;;;;;;;20888038;28;20215;-83
2023/05/22 23:05:01;;;;;;;12.30;9.23;;;;;;;;;;20885671;28;20286;-84
2023/05/22 23:15:03;;;;;;;12.38;9.75;;;;;;;;;;20902579;28;20216;-83
2023/05/22 23:25:06;;;;;;;14.75;9.65;;;21.90;99.90;;;;;;20887273;28;20773;-83
2023/05/22 23:35:09;;;;;;;13.90;10.02;;;;;;;;;;20868039;28;20286;-82
2023/05/22 23:45:11;;;;;;;14.65;10.13;;;;;;;;;;20899405;28;20293;-83
2023/05/22 23:55:13;;;;;;;15.57;9.63;;;;;;;;;;20902754;28;20213;-83
